Time;durP1;ratioP1;P1;durP2;ratioP2;P2;SDS_P1;SDS_P2;PMS_P1;PMS_P2;Temp;Humidity;BMP_temperature;BMP_pressure;BME280_temperature;BME280_humidity;BME280_pressure;Samples;Min_cycle;Max_cycle;Signal;HPM_P1;HPM_P2
2022/01/30 00:00:50;;;;;;;;;;;4.40;99.90;;;;;;4948415;28;20343;-64
2022/01/30 00:03:17;;;;;;;;;;;4.20;99.90;;;;;;4936814;28;20290;-66
2022/01/30 00:05:44;;;;;;;;;;;4.10;99.90;;;;;;4944041;28;20282;-64
2022/01/30 00:08:11;;;;;;;;;;;4.10;99.90;;;;;;4940533;28;20675;-65
2022/01/30 00:10:40;;;;;;;;;;;4.00;99.90;;;;;;4948388;28;20260;-65
2022/01/30 00:13:11;;;;;;;;;;;4.00;99.90;;;;;;4940327;28;20429;-65
2022/01/30 00:18:18;;;;;;;;;;;4.00;99.90;;;;;;4941530;28;19950;-64
2022/01/30 00:20:55;;;;;;;;;;;4.00;99.90;;;;;;4943086;28;19922;-63
2022/01/30 00:23:26;;;;;;;;;;;4.00;99.90;;;;;;4942998;28;20029;-63
2022/01/30 00:25:55;;;;;;;;;;;4.00;99.90;;;;;;4942663;28;19973;-64
2022/01/30 00:28:25;;;;;;;;;;;4.00;99.90;;;;;;4939215;28;25823;-63
2022/01/30 00:30:52;;;;;;;;;;;4.00;99.90;;;;;;4939928;28;20334;-64
2022/01/30 00:33:19;;;;;;;;;;;4.00;99.90;;;;;;4937788;28;20024;-64
2022/01/30 00:35:48;;;;;;;;;;;4.00;99.90;;;;;;4940426;28;19929;-65
2022/01/30 00:38:18;;;;;;;;;;;4.00;99.90;;;;;;4937428;28;20371;-63
2022/01/30 00:40:48;;;;;;;;;;;4.00;99.90;;;;;;4941620;28;20031;-64
2022/01/30 00:43:15;;;;;;;;;;;4.00;99.90;;;;;;4939581;28;19923;-63
2022/01/30 00:45:44;;;;;;;;;;;4.00;99.90;;;;;;4943321;28;19922;-64
2022/01/30 00:48:11;;;;;;;;;;;4.00;99.90;;;;;;4941572;28;19979;-62
2022/01/30 00:50:38;;;;;;;;;;;4.00;99.90;;;;;;4966242;28;19931;-65
2022/01/30 00:53:06;;;;;;;;;;;4.00;99.90;;;;;;4946805;28;19928;-63
2022/01/30 00:55:32;;;;;;;;;;;4.00;99.90;;;;;;4937513;28;19997;-63
2022/01/30 00:58:00;;;;;;;;;;;4.00;99.90;;;;;;4943333;28;20008;-65
2022/01/30 01:00:27;;;;;;;;;;;3.90;99.90;;;;;;4934326;28;19946;-66
2022/01/30 01:02:54;;;;;;;;;;;3.90;99.90;;;;;;4941413;28;20004;-62
2022/01/30 01:05:21;;;;;;;;;;;3.90;99.90;;;;;;4944303;28;19926;-64
2022/01/30 01:07:51;;;;;;;;;;;4.00;99.90;;;;;;4941838;28;19927;-62
2022/01/30 01:10:37;;;;;;;;;;;4.00;99.90;;;;;;4960039;28;19927;-65
2022/01/30 01:23:53;;;;;;;;;;;3.90;99.90;;;;;;4924824;28;20312;-63
2022/01/30 01:26:20;;;;;;;;;;;3.90;99.90;;;;;;4920072;28;20017;-64
2022/01/30 01:28:51;;;;;;;;;;;3.90;99.90;;;;;;4526913;28;10000345;-63
2022/01/30 01:31:19;;;;;;;;;;;3.90;99.90;;;;;;1353489;28;10001991;-67
2022/01/30 01:36:18;;;;;;;;;;;3.90;99.90;;;;;;4935228;28;20870;-66
2022/01/30 01:38:45;;;;;;;;;;;3.90;99.90;;;;;;4920430;28;19930;-62
2022/01/30 01:41:12;;;;;;;;;;;3.80;99.90;;;;;;4936347;28;20334;-64
2022/01/30 01:43:39;;;;;;;;;;;3.80;99.90;;;;;;4918198;28;20364;-70
2022/01/30 01:46:14;;;;;;;;;;;3.80;99.90;;;;;;4918695;28;19930;-66
2022/01/30 01:48:42;;;;;;;;;;;3.80;99.90;;;;;;4919025;28;20059;-63
2022/01/30 01:51:18;;;;;;;;;;;3.70;99.90;;;;;;4921608;28;19941;-63
2022/01/30 01:53:46;;;;;;;;;;;3.70;99.90;;;;;;4933231;28;19922;-66
2022/01/30 01:56:14;;;;;;;;;;;3.70;99.90;;;;;;4936750;28;19934;-63
2022/01/30 01:58:42;;;;;;;;;;;3.70;99.90;;;;;;4944778;28;19930;-64
2022/01/30 02:01:35;;;;;;;;;;;3.70;99.90;;;;;;4938704;28;19930;-64
2022/01/30 02:04:02;;;;;;;;;;;3.60;99.90;;;;;;4935651;28;20346;-65
2022/01/30 02:06:29;;;;;;;;;;;3.60;99.90;;;;;;4939763;28;19926;-66
2022/01/30 02:09:06;;;;;;;;;;;3.50;99.90;;;;;;4965813;28;19927;-65
2022/01/30 02:11:38;;;;;;;;;;;3.40;99.90;;;;;;4957848;28;20467;-66
2022/01/30 02:25:31;;;;;;;;;;;3.30;99.90;;;;;;4942116;28;19994;-67
2022/01/30 02:27:59;;;;;;;;;;;3.30;99.90;;;;;;4971412;28;19965;-63
2022/01/30 02:30:32;;;;;;;;;;;3.30;99.90;;;;;;4939072;28;19996;-65
2022/01/30 02:32:59;;;;;;;;;;;3.30;99.90;;;;;;4944880;28;19973;-63
2022/01/30 02:35:26;;;;;;;;;;;3.20;99.90;;;;;;4943189;28;19989;-65
2022/01/30 02:37:54;;;;;;;;;;;3.20;99.90;;;;;;4936574;28;19922;-65
2022/01/30 02:40:21;;;;;;;;;;;3.10;99.90;;;;;;4942735;28;19941;-63
2022/01/30 02:42:52;;;;;;;;;;;3.00;99.90;;;;;;4944289;28;19985;-63
2022/01/30 02:45:22;;;;;;;;;;;2.90;99.90;;;;;;4944735;28;19962;-63
2022/01/30 02:48:31;;;;;;;;;;;2.90;99.90;;;;;;4941921;28;20373;-63
2022/01/30 02:50:56;;;;;;;;;;;2.80;99.90;;;;;;4940177;28;19979;-65
2022/01/30 02:53:31;;;;;;;;;;;2.70;99.90;;;;;;4940626;28;19989;-65
2022/01/30 02:55:58;;;;;;;;;;;2.60;99.90;;;;;;4935369;28;20913;-66
2022/01/30 02:58:24;;;;;;;;;;;2.50;99.90;;;;;;4941821;28;19958;-65
2022/01/30 03:00:52;;;;;;;;;;;2.40;99.90;;;;;;4940951;28;20371;-63
2022/01/30 03:03:19;;;;;;;;;;;2.40;99.90;;;;;;4940634;28;19945;-64
2022/01/30 03:05:47;;;;;;;;;;;2.30;99.90;;;;;;4944857;28;20400;-63
2022/01/30 03:08:15;;;;;;;;;;;2.30;99.90;;;;;;4953934;28;19938;-64
2022/01/30 03:10:41;;;;;;;;;;;2.40;99.90;;;;;;4945552;28;19965;-65
2022/01/30 03:13:08;;;;;;;;;;;2.50;99.90;;;;;;4942610;28;19930;-63
2022/01/30 03:15:35;;;;;;;;;;;2.60;99.90;;;;;;4934546;28;19931;-64
2022/01/30 03:18:02;;;;;;;;;;;2.60;99.90;;;;;;4942659;28;19929;-66
2022/01/30 03:20:29;;;;;;;;;;;2.60;99.90;;;;;;4955343;28;20018;-64
2022/01/30 03:22:58;;;;;;;;;;;2.60;99.90;;;;;;4933860;28;19930;-66
2022/01/30 03:25:25;;;;;;;;;;;2.60;99.90;;;;;;4918485;28;20105;-63
2022/01/30 03:28:12;;;;;;;;;;;2.60;99.90;;;;;;4836636;28;20530;-64
2022/01/30 03:30:43;;;;;;;;;;;2.60;99.90;;;;;;1000354;28;10021894;-64
2022/01/30 03:33:39;;;;;;;;;;;2.60;99.90;;;;;;4914618;28;19930;-65
2022/01/30 03:36:06;;;;;;;;;;;2.50;99.90;;;;;;4917961;28;19930;-68
2022/01/30 03:38:34;;;;;;;;;;;2.50;99.90;;;;;;4916747;28;20020;-68
2022/01/30 03:41:01;;;;;;;;;;;2.40;99.90;;;;;;4918106;28;19981;-68
2022/01/30 03:43:30;;;;;;;;;;;2.40;99.90;;;;;;4916522;28;19930;-64
2022/01/30 03:45:57;;;;;;;;;;;2.40;99.90;;;;;;4917585;28;20047;-66
2022/01/30 03:48:24;;;;;;;;;;;2.40;99.90;;;;;;4915540;28;19926;-65
2022/01/30 03:51:01;;;;;;;;;;;2.40;99.90;;;;;;4932857;28;19922;-65
2022/01/30 03:53:31;;;;;;;;;;;2.40;99.90;;;;;;4922942;28;20024;-63
2022/01/30 03:55:59;;;;;;;;;;;2.40;99.90;;;;;;4964041;28;19930;-62
2022/01/30 03:58:31;;;;;;;;;;;2.40;99.90;;;;;;4941620;28;19956;-62
2022/01/30 04:01:03;;;;;;;;;;;2.40;99.90;;;;;;4944112;28;20051;-65
2022/01/30 04:03:31;;;;;;;;;;;2.40;99.90;;;;;;4941360;28;20376;-63
2022/01/30 04:05:58;;;;;;;;;;;2.30;99.90;;;;;;4935866;28;19922;-66
2022/01/30 04:08:25;;;;;;;;;;;2.30;99.90;;;;;;4962692;28;19922;-65
2022/01/30 04:11:15;;;;;;;;;;;2.30;99.90;;;;;;4940010;28;19923;-67
2022/01/30 04:13:55;;;;;;;;;;;2.30;99.90;;;;;;4966602;28;19938;-64
2022/01/30 04:16:34;;;;;;;;;;;2.30;99.90;;;;;;4941705;28;19944;-65
2022/01/30 04:19:19;;;;;;;;;;;2.30;99.90;;;;;;4943114;28;19939;-66
2022/01/30 04:22:01;;;;;;;;;;;2.20;99.90;;;;;;4956821;28;20022;-68
2022/01/30 04:24:46;;;;;;;;;;;2.10;99.90;;;;;;4939336;28;20564;-64
2022/01/30 04:27:42;;;;;;;;;;;2.10;99.90;;;;;;4927431;29;19926;-63
2022/01/30 04:30:38;;;;;;;;;;;2.00;99.90;;;;;;4936520;28;19922;-64
2022/01/30 04:33:28;;;;;;;;;;;1.90;99.90;;;;;;4938294;28;19927;-64
2022/01/30 04:35:56;;;;;;;;;;;1.90;99.90;;;;;;4937881;28;20017;-65
2022/01/30 05:00:07;;;;;;;;;;;1.90;99.90;;;;;;4943646;28;19934;-64
2022/01/30 05:08:31;;;;;;;;;;;1.90;99.90;;;;;;4954917;28;20600;-64
2022/01/30 05:11:08;;;;;;;;;;;1.90;99.90;;;;;;4942440;28;19926;-65
2022/01/30 05:13:55;;;;;;;;;;;1.90;99.90;;;;;;4946864;28;20746;-65
2022/01/30 05:16:35;;;;;;;;;;;1.90;99.90;;;;;;4962973;28;19926;-65
2022/01/30 05:19:21;;;;;;;;;;;1.90;99.90;;;;;;4942507;28;20713;-66
2022/01/30 05:22:07;;;;;;;;;;;1.90;99.90;;;;;;4940005;28;19929;-65
2022/01/30 05:24:38;;;;;;;;;;;1.90;99.90;;;;;;4918780;28;20846;-64
2022/01/30 05:27:09;;;;;;;;;;;1.80;99.90;;;;;;4901740;28;19931;-64
2022/01/30 05:30:06;;;;;;;;;;;1.80;99.90;;;;;;4813979;28;20606;-66
2022/01/30 05:32:43;;;;;;;;;;;1.90;99.90;;;;;;675246;29;10002124;-65
2022/01/30 05:35:32;;;;;;;;;;;1.80;99.90;;;;;;4920103;28;19933;-65
2022/01/30 05:38:16;;;;;;;;;;;1.90;99.90;;;;;;4935424;28;19928;-71
2022/01/30 05:41:02;;;;;;;;;;;1.90;99.90;;;;;;4922015;28;19937;-66
2022/01/30 05:44:11;;;;;;;;;;;1.80;99.90;;;;;;4919046;28;20327;-68
2022/01/30 05:47:06;;;;;;;;;;;1.80;99.90;;;;;;4936052;28;19922;-66
2022/01/30 05:49:48;;;;;;;;;;;1.80;99.90;;;;;;4925804;28;19934;-68
2022/01/30 05:52:35;;;;;;;;;;;1.80;99.90;;;;;;4918904;28;20411;-67
2022/01/30 05:55:10;;;;;;;;;;;1.90;99.90;;;;;;4938566;28;19984;-63
2022/01/30 05:57:37;;;;;;;;;;;1.80;99.90;;;;;;4938702;28;19969;-65
2022/01/30 06:00:05;;;;;;;;;;;1.80;99.90;;;;;;4937367;28;19969;-64
2022/01/30 06:02:52;;;;;;;;;;;1.70;99.90;;;;;;4941723;28;19926;-67
2022/01/30 06:05:22;;;;;;;;;;;1.80;99.90;;;;;;4941435;28;19929;-64
2022/01/30 06:07:56;;;;;;;;;;;1.70;99.90;;;;;;4937805;28;19923;-66
2022/01/30 06:10:25;;;;;;;;;;;1.70;99.90;;;;;;4956826;28;20094;-65
2022/01/30 06:12:52;;;;;;;;;;;1.80;99.90;;;;;;4940602;28;20037;-64
2022/01/30 06:15:19;;;;;;;;;;;1.80;99.90;;;;;;4937699;28;20523;-65
2022/01/30 06:17:51;;;;;;;;;;;1.80;99.90;;;;;;4942338;28;19922;-64
2022/01/30 06:20:32;;;;;;;;;;;1.80;99.90;;;;;;4941545;28;19922;-65
2022/01/30 06:23:40;;;;;;;;;;;1.80;99.90;;;;;;4921403;29;19938;-66
2022/01/30 06:26:25;;;;;;;;;;;1.80;99.90;;;;;;4914691;29;19933;-66
2022/01/30 06:29:10;;;;;;;;;;;1.80;99.90;;;;;;4937371;28;19936;-65
2022/01/30 06:31:56;;;;;;;;;;;1.80;99.90;;;;;;4937696;28;20001;-67
2022/01/30 06:34:46;;;;;;;;;;;1.80;99.90;;;;;;4921787;28;19930;-64
2022/01/30 06:37:27;;;;;;;;;;;1.90;99.90;;;;;;4936066;28;19930;-66
2022/01/30 06:40:06;;;;;;;;;;;1.90;99.90;;;;;;4943392;28;20215;-64
2022/01/30 06:42:56;;;;;;;;;;;1.90;99.90;;;;;;4932280;28;19923;-64
2022/01/30 06:45:42;;;;;;;;;;;2.00;99.90;;;;;;4940425;28;19941;-64
2022/01/30 06:48:28;;;;;;;;;;;2.00;99.90;;;;;;4943035;28;19933;-64
2022/01/30 06:51:13;;;;;;;;;;;2.00;99.90;;;;;;4943108;28;20050;-67
2022/01/30 06:53:58;;;;;;;;;;;2.00;99.90;;;;;;4942040;28;19933;-66
2022/01/30 06:56:44;;;;;;;;;;;2.00;99.90;;;;;;4942661;28;19989;-66
2022/01/30 06:59:29;;;;;;;;;;;2.00;99.90;;;;;;4939077;28;19944;-65
2022/01/30 07:02:15;;;;;;;;;;;2.10;99.90;;;;;;4936125;28;19945;-65
2022/01/30 07:04:48;;;;;;;;;;;2.10;99.90;;;;;;4936441;28;20318;-65
2022/01/30 07:07:25;;;;;;;;;;;2.20;99.90;;;;;;4955317;28;19931;-64
2022/01/30 07:09:52;;;;;;;;;;;2.20;99.90;;;;;;4938452;28;19933;-66
2022/01/30 07:12:18;;;;;;;;;;;2.10;99.90;;;;;;4935298;28;19998;-67
2022/01/30 07:14:45;;;;;;;;;;;2.10;99.90;;;;;;4938169;28;19978;-69
2022/01/30 07:17:12;;;;;;;;;;;2.10;99.90;;;;;;4937043;28;20357;-63
2022/01/30 07:19:39;;;;;;;;;;;2.10;99.90;;;;;;4937261;28;19949;-68
2022/01/30 07:22:06;;;;;;;;;;;2.10;99.90;;;;;;4934410;28;19978;-72
2022/01/30 07:24:32;;;;;;;;;;;2.10;99.90;;;;;;4928138;28;20400;-67
2022/01/30 07:26:59;;;;;;;;;;;2.20;99.90;;;;;;4916430;28;19945;-66
2022/01/30 07:29:30;;;;;;;;;;;2.10;99.90;;;;;;3551646;28;10020024;-69
2022/01/30 07:31:56;;;;;;;;;;;2.10;99.90;;;;;;2374368;28;10002025;-66
2022/01/30 07:34:23;;;;;;;;;;;2.10;99.90;;;;;;4891457;28;20036;-66
2022/01/30 07:36:50;;;;;;;;;;;1.90;99.90;;;;;;4853750;28;20490;-73
2022/01/30 07:39:17;;;;;;;;;;;2.00;99.90;;;;;;1303467;28;10002120;-68
2022/01/30 07:41:44;;;;;;;;;;;2.00;99.90;;;;;;4917413;28;20052;-70
2022/01/30 07:44:15;;;;;;;;;;;2.10;99.90;;;;;;4931273;28;19926;-66
2022/01/30 07:46:42;;;;;;;;;;;2.10;99.90;;;;;;4945225;28;20088;-65
2022/01/30 07:49:09;;;;;;;;;;;2.10;99.90;;;;;;4916216;28;19930;-70
2022/01/30 07:51:36;;;;;;;;;;;2.10;99.90;;;;;;4917380;28;19922;-70
2022/01/30 07:54:02;;;;;;;;;;;2.00;99.90;;;;;;4915497;28;19942;-66
2022/01/30 07:56:29;;;;;;;;;;;1.90;99.90;;;;;;4939016;28;19923;-65
2022/01/30 07:58:56;;;;;;;;;;;1.90;99.90;;;;;;4935461;28;20022;-66
2022/01/30 08:01:23;;;;;;;;;;;1.80;99.90;;;;;;4941799;28;19930;-64
2022/01/30 08:03:50;;;;;;;;;;;1.80;99.90;;;;;;4940726;28;20294;-64
2022/01/30 08:06:17;;;;;;;;;;;1.70;99.90;;;;;;4936545;28;19957;-65
2022/01/30 08:08:44;;;;;;;;;;;1.70;99.90;;;;;;4935802;28;20364;-64
2022/01/30 08:11:11;;;;;;;;;;;1.70;99.90;;;;;;4940021;28;20290;-67
2022/01/30 08:13:38;;;;;;;;;;;1.70;99.90;;;;;;4940676;28;20294;-65
2022/01/30 08:16:05;;;;;;;;;;;1.70;99.90;;;;;;4934172;28;19927;-68
2022/01/30 08:18:33;;;;;;;;;;;1.50;99.90;;;;;;4941161;28;20006;-65
2022/01/30 08:21:00;;;;;;;;;;;1.40;99.90;;;;;;4941434;28;20006;-67
2022/01/30 08:23:29;;;;;;;;;;;1.50;99.90;;;;;;4948740;28;19970;-64
2022/01/30 08:25:55;;;;;;;;;;;1.60;99.90;;;;;;4941997;28;20141;-65
2022/01/30 08:28:22;;;;;;;;;;;1.60;99.90;;;;;;4937346;28;20478;-65
2022/01/30 08:30:50;;;;;;;;;;;1.70;99.90;;;;;;4942158;28;19926;-64
2022/01/30 08:33:17;;;;;;;;;;;1.70;99.90;;;;;;4942103;28;19934;-66
2022/01/30 08:35:45;;;;;;;;;;;1.60;99.90;;;;;;4940702;28;19996;-65
2022/01/30 08:38:15;;;;;;;;;;;1.60;99.90;;;;;;4936813;28;19922;-65
2022/01/30 08:40:42;;;;;;;;;;;1.60;99.90;;;;;;4938611;28;19937;-64
2022/01/30 08:43:09;;;;;;;;;;;1.60;99.90;;;;;;4941293;28;19922;-65
2022/01/30 08:45:36;;;;;;;;;;;1.60;99.90;;;;;;4941028;28;19934;-65
2022/01/30 08:48:03;;;;;;;;;;;1.60;99.90;;;;;;4937674;28;19926;-65
2022/01/30 08:50:30;;;;;;;;;;;1.60;99.90;;;;;;4937468;28;20320;-65
2022/01/30 08:52:57;;;;;;;;;;;1.60;99.90;;;;;;4941737;28;20450;-64
2022/01/30 08:55:27;;;;;;;;;;;1.60;99.90;;;;;;4942224;28;20736;-68
2022/01/30 08:57:53;;;;;;;;;;;1.60;99.90;;;;;;4944766;28;19969;-70
2022/01/30 09:00:20;;;;;;;;;;;1.60;99.90;;;;;;4942276;28;20337;-65
2022/01/30 09:02:47;;;;;;;;;;;1.60;99.90;;;;;;4944858;28;19962;-65
2022/01/30 09:05:14;;;;;;;;;;;1.70;99.90;;;;;;4944117;28;19928;-68
2022/01/30 09:07:41;;;;;;;;;;;1.70;99.90;;;;;;4944472;28;19936;-66
2022/01/30 09:10:10;;;;;;;;;;;1.70;99.90;;;;;;4938048;28;20026;-65
2022/01/30 09:12:37;;;;;;;;;;;1.70;99.90;;;;;;4943102;28;20040;-69
2022/01/30 09:15:04;;;;;;;;;;;1.60;99.90;;;;;;4938966;28;21106;-64
2022/01/30 09:17:31;;;;;;;;;;;1.40;99.90;;;;;;4937676;28;20022;-64
2022/01/30 09:19:58;;;;;;;;;;;1.50;99.90;;;;;;4934131;28;19962;-66
2022/01/30 09:22:26;;;;;;;;;;;1.50;99.90;;;;;;4936789;28;20375;-66
2022/01/30 09:24:52;;;;;;;;;;;1.50;99.90;;;;;;4936228;28;19932;-68
2022/01/30 09:27:19;;;;;;;;;;;1.50;99.90;;;;;;4926633;28;19969;-65
2022/01/30 09:29:46;;;;;;;;;;;1.60;99.90;;;;;;4919662;28;20513;-65
2022/01/30 09:32:14;;;;;;;;;;;1.60;99.90;;;;;;4901276;28;19933;-65
2022/01/30 09:34:41;;;;;;;;;;;1.70;99.90;;;;;;4843197;28;20565;-70
2022/01/30 09:37:07;;;;;;;;;;;1.70;99.90;;;;;;1294490;28;10002010;-65
2022/01/30 09:39:34;;;;;;;;;;;1.70;99.90;;;;;;4924250;28;20025;-68
2022/01/30 09:42:01;;;;;;;;;;;1.70;99.90;;;;;;4919041;28;20045;-70
2022/01/30 09:44:29;;;;;;;;;;;1.80;99.90;;;;;;4916019;28;19930;-65
2022/01/30 09:46:56;;;;;;;;;;;1.80;99.90;;;;;;4913385;28;20348;-66
2022/01/30 09:49:25;;;;;;;;;;;1.80;99.90;;;;;;4911220;28;19930;-66
2022/01/30 09:51:53;;;;;;;;;;;1.80;99.90;;;;;;4910994;28;19937;-65
2022/01/30 09:54:20;;;;;;;;;;;1.80;99.90;;;;;;4909406;28;19948;-69
2022/01/30 09:56:47;;;;;;;;;;;1.80;99.90;;;;;;4910318;28;20033;-76
2022/01/30 09:59:14;;;;;;;;;;;1.80;99.90;;;;;;4912601;28;20017;-66
2022/01/30 10:01:41;;;;;;;;;;;1.70;99.90;;;;;;4912141;28;20541;-65
2022/01/30 10:04:09;;;;;;;;;;;1.80;99.90;;;;;;4909299;28;19973;-66
2022/01/30 10:07:13;;;;;;;;;;;1.80;99.90;;;;;;4907201;28;20010;-68
2022/01/30 10:09:45;;;;;;;;;;;1.80;99.90;;;;;;4927901;28;19993;-66
2022/01/30 10:12:15;;;;;;;;;;;1.80;99.90;;;;;;4912341;28;19974;-66
2022/01/30 10:15:01;;;;;;;;;;;1.80;99.90;;;;;;4908011;28;20001;-67
2022/01/30 10:17:27;;;;;;;;;;;1.80;99.90;;;;;;4918749;28;20207;-66
2022/01/30 10:20:06;;;;;;;;;;;1.80;99.90;;;;;;4942595;28;19965;-65
2022/01/30 10:22:34;;;;;;;;;;;1.80;99.90;;;;;;4937606;28;19933;-65
2022/01/30 10:25:01;;;;;;;;;;;1.80;99.90;;;;;;4939489;28;19956;-65
2022/01/30 10:27:29;;;;;;;;;;;1.80;99.90;;;;;;4940970;28;19961;-66
2022/01/30 10:29:59;;;;;;;;;;;1.80;99.90;;;;;;4942935;28;19927;-65
2022/01/30 10:32:27;;;;;;;;;;;1.80;99.90;;;;;;4928257;28;19923;-65
2022/01/30 10:34:58;;;;;;;;;;;1.80;99.90;;;;;;4938734;28;19927;-65
2022/01/30 10:37:29;;;;;;;;;;;1.80;99.90;;;;;;4940526;28;19928;-66
2022/01/30 10:39:58;;;;;;;;;;;1.80;99.90;;;;;;4939163;28;19926;-65
2022/01/30 10:42:33;;;;;;;;;;;1.80;99.90;;;;;;4940905;28;19941;-67
2022/01/30 10:45:04;;;;;;;;;;;1.80;99.90;;;;;;4939854;28;19926;-65
2022/01/30 10:47:32;;;;;;;;;;;1.80;99.90;;;;;;4937527;28;21223;-67
2022/01/30 10:49:59;;;;;;;;;;;1.70;99.90;;;;;;4940364;28;19977;-64
2022/01/30 10:52:26;;;;;;;;;;;1.70;99.90;;;;;;4952380;28;20017;-64
2022/01/30 10:55:02;;;;;;;;;;;1.70;99.90;;;;;;4941999;28;20029;-64
2022/01/30 10:57:29;;;;;;;;;;;1.70;99.90;;;;;;4920340;28;19930;-65
2022/01/30 10:59:57;;;;;;;;;;;1.70;99.90;;;;;;4910335;28;20428;-65
2022/01/30 11:02:24;;;;;;;;;;;1.70;99.90;;;;;;4907758;28;19926;-67
2022/01/30 11:05:00;;;;;;;;;;;1.80;99.90;;;;;;4906819;28;20352;-65
2022/01/30 11:07:30;;;;;;;;;;;1.80;99.90;;;;;;4904851;28;19930;-67
2022/01/30 11:10:02;;;;;;;;;;;1.80;99.90;;;;;;4911138;28;19922;-66
2022/01/30 11:13:24;;;;;;;;;;;1.80;99.90;;;;;;4908978;28;19933;-65
2022/01/30 11:17:56;;;;;;;;;;;1.90;99.90;;;;;;4909092;28;20037;-65
2022/01/30 11:20:23;;;;;;;;;;;1.90;99.90;;;;;;4908534;28;19931;-69
2022/01/30 11:22:51;;;;;;;;;;;1.90;99.90;;;;;;4905411;28;20434;-69
2022/01/30 11:25:20;;;;;;;;;;;1.90;99.90;;;;;;4907127;28;19944;-66
2022/01/30 11:27:48;;;;;;;;;;;1.90;99.90;;;;;;4924097;28;19938;-68
2022/01/30 11:30:35;;;;;;;;;;;2.00;99.90;;;;;;4931348;28;20049;-68
2022/01/30 11:33:02;;;;;;;;;;;2.00;99.90;;;;;;4865113;28;19930;-66
2022/01/30 11:35:35;;;;;;;;;;;1.90;99.90;;;;;;1174908;28;10021999;-65
2022/01/30 11:38:04;;;;;;;;;;;1.90;99.90;;;;;;4928778;28;19997;-69
2022/01/30 11:40:31;;;;;;;;;;;1.90;99.90;;;;;;4933244;28;20415;-66
2022/01/30 11:43:07;;;;;;;;;;;1.90;99.90;;;;;;4928877;28;20033;-66
2022/01/30 11:45:34;;;;;;;;;;;1.90;99.90;;;;;;4929754;28;19936;-67
2022/01/30 11:48:12;;;;;;;;;;;2.00;99.90;;;;;;4936297;28;19923;-66
2022/01/30 11:50:39;;;;;;;;;;;2.00;99.90;;;;;;4937222;28;19937;-64
2022/01/30 11:53:07;;;;;;;;;;;2.00;99.90;;;;;;4931457;28;19934;-66
2022/01/30 11:55:48;;;;;;;;;;;2.00;99.90;;;;;;4934277;28;19941;-66
2022/01/30 11:58:33;;;;;;;;;;;2.00;99.90;;;;;;4935685;28;20065;-67
2022/01/30 12:01:04;;;;;;;;;;;2.00;99.90;;;;;;4940116;28;20017;-67
2022/01/30 12:03:35;;;;;;;;;;;2.00;99.90;;;;;;4937524;28;20314;-66
2022/01/30 12:06:20;;;;;;;;;;;2.00;99.90;;;;;;4936282;28;20001;-68
2022/01/30 12:08:48;;;;;;;;;;;2.00;99.90;;;;;;4938391;28;20429;-67
2022/01/30 12:11:33;;;;;;;;;;;2.00;99.90;;;;;;4938077;28;19930;-68
2022/01/30 12:14:01;;;;;;;;;;;2.00;99.90;;;;;;4936474;28;20069;-65
2022/01/30 12:16:46;;;;;;;;;;;2.00;99.90;;;;;;4938060;28;19966;-66
2022/01/30 12:19:16;;;;;;;;;;;2.00;99.90;;;;;;4934421;28;21081;-65
2022/01/30 12:21:43;;;;;;;;;;;2.00;99.90;;;;;;4937327;28;20395;-67
2022/01/30 12:24:23;;;;;;;;;;;1.90;99.90;;;;;;4939312;28;19969;-66
2022/01/30 12:26:54;;;;;;;;;;;1.90;99.90;;;;;;4937683;28;19937;-68
2022/01/30 12:29:34;;;;;;;;;;;1.90;99.90;;;;;;4935694;28;19962;-69
2022/01/30 12:32:19;;;;;;;;;;;1.90;99.90;;;;;;4938817;28;19926;-67
2022/01/30 12:34:55;;;;;;;;;;;1.90;99.90;;;;;;4938078;28;19934;-67
2022/01/30 12:37:24;;;;;;;;;;;1.90;99.90;;;;;;4908079;28;19930;-69
2022/01/30 12:39:52;;;;;;;;;;;1.80;99.90;;;;;;4906606;28;19934;-67
2022/01/30 12:42:19;;;;;;;;;;;1.80;99.90;;;;;;4904163;28;20044;-66
2022/01/30 12:44:47;;;;;;;;;;;1.70;99.90;;;;;;4905242;28;20474;-67
2022/01/30 12:47:14;;;;;;;;;;;1.70;99.90;;;;;;4903638;28;19937;-70
2022/01/30 12:49:49;;;;;;;;;;;1.80;99.90;;;;;;4904578;28;19941;-72
2022/01/30 12:54:57;;;;;;;;;;;1.70;99.90;;;;;;4910961;28;19934;-71
2022/01/30 12:57:25;;;;;;;;;;;1.70;99.90;;;;;;4910934;28;19930;-71
2022/01/30 12:59:53;;;;;;;;;;;1.70;99.90;;;;;;4907428;28;24681;-66
2022/01/30 13:02:20;;;;;;;;;;;1.70;99.90;;;;;;4912791;28;19937;-70
2022/01/30 13:04:57;;;;;;;;;;;1.70;99.90;;;;;;4909726;28;20081;-67
2022/01/30 13:07:24;;;;;;;;;;;1.70;99.90;;;;;;4907840;28;19936;-68
2022/01/30 13:10:03;;;;;;;;;;;1.70;99.90;;;;;;4907080;28;19931;-74
2022/01/30 13:12:31;;;;;;;;;;;1.60;99.90;;;;;;4911235;28;22131;-66
2022/01/30 13:14:58;;;;;;;;;;;1.60;99.90;;;;;;4908911;28;20495;-68
2022/01/30 13:17:29;;;;;;;;;;;1.60;99.90;;;;;;4923980;28;19930;-69
2022/01/30 13:19:56;;;;;;;;;;;1.60;99.90;;;;;;4934148;28;20029;-66
2022/01/30 13:22:37;;;;;;;;;;;1.60;99.90;;;;;;4934234;28;19930;-69
2022/01/30 13:25:05;;;;;;;;;;;1.60;99.90;;;;;;4908376;28;20044;-69
2022/01/30 13:27:33;;;;;;;;;;;1.60;99.90;;;;;;4907989;28;20657;-69
2022/01/30 13:30:00;;;;;;;;;;;1.60;99.90;;;;;;4905431;28;20021;-69
2022/01/30 13:32:27;;;;;;;;;;;1.60;99.90;;;;;;4866196;28;21557;-67
2022/01/30 13:34:57;;;;;;;;;;;1.60;99.90;;;;;;4461233;28;10000224;-70
2022/01/30 13:37:24;;;;;;;;;;;1.50;99.90;;;;;;1350692;28;10002034;-67
2022/01/30 13:47:59;;;;;;;;;;;1.50;99.90;;;;;;4904092;28;19943;-72
2022/01/30 13:50:46;;;;;;;;;;;1.50;99.90;;;;;;4903136;28;19938;-72
2022/01/30 13:53:14;;;;;;;;;;;1.50;99.90;;;;;;4914578;28;20081;-69
2022/01/30 13:55:52;;;;;;;;;;;1.50;99.90;;;;;;4935058;28;19938;-65
2022/01/30 13:58:20;;;;;;;;;;;1.50;99.90;;;;;;4934660;28;19956;-72
2022/01/30 14:00:47;;;;;;;;;;;1.50;99.90;;;;;;4935273;28;19937;-72
2022/01/30 14:03:25;;;;;;;;;;;1.50;99.90;;;;;;4937346;28;19930;-72
2022/01/30 14:05:52;;;;;;;;;;;1.50;99.90;;;;;;4935027;28;20897;-71
2022/01/30 14:08:20;;;;;;;;;;;1.40;99.90;;;;;;4933693;28;19927;-70
2022/01/30 14:10:48;;;;;;;;;;;1.40;99.90;;;;;;4934350;28;19931;-69
2022/01/30 14:13:18;;;;;;;;;;;1.40;99.90;;;;;;4936324;28;20005;-68
2022/01/30 14:16:02;;;;;;;;;;;1.40;99.90;;;;;;4934542;28;20911;-69
2022/01/30 14:18:34;;;;;;;;;;;1.40;99.90;;;;;;4933338;28;20038;-68
2022/01/30 14:21:04;;;;;;;;;;;1.50;99.90;;;;;;4933480;28;20014;-70
2022/01/30 14:23:35;;;;;;;;;;;1.40;99.90;;;;;;4936138;28;19932;-69
2022/01/30 14:26:02;;;;;;;;;;;1.50;99.90;;;;;;4935590;28;20100;-71
2022/01/30 14:28:30;;;;;;;;;;;1.50;99.90;;;;;;4934084;28;19942;-70
2022/01/30 14:30:58;;;;;;;;;;;1.50;99.90;;;;;;4935579;28;20029;-69
2022/01/30 14:33:29;;;;;;;;;;;1.50;99.90;;;;;;4934866;28;19930;-74
2022/01/30 14:35:56;;;;;;;;;;;1.40;99.90;;;;;;4935839;28;20481;-70
2022/01/30 14:38:23;;;;;;;;;;;1.40;99.90;;;;;;4932324;28;20021;-69
2022/01/30 14:40:52;;;;;;;;;;;1.40;99.90;;;;;;4935924;28;20107;-65
2022/01/30 14:43:19;;;;;;;;;;;1.40;99.90;;;;;;4934439;28;19961;-69
2022/01/30 14:45:47;;;;;;;;;;;1.40;99.90;;;;;;4935039;28;20707;-66
2022/01/30 14:48:14;;;;;;;;;;;1.30;99.90;;;;;;4934882;28;20005;-68
2022/01/30 14:50:44;;;;;;;;;;;1.30;99.90;;;;;;4933195;28;20581;-71
2022/01/30 14:53:11;;;;;;;;;;;1.30;99.90;;;;;;4935575;28;19931;-66
2022/01/30 14:55:38;;;;;;;;;;;1.30;99.90;;;;;;4935152;28;20462;-63
2022/01/30 14:58:05;;;;;;;;;;;1.30;99.90;;;;;;4935028;28;20021;-66
2022/01/30 15:00:32;;;;;;;;;;;1.30;99.90;;;;;;4935376;28;20524;-67
2022/01/30 15:03:03;;;;;;;;;;;1.30;99.90;;;;;;4935905;28;19950;-67
2022/01/30 15:05:31;;;;;;;;;;;1.20;99.90;;;;;;4934999;28;19938;-69
2022/01/30 15:07:58;;;;;;;;;;;1.20;99.90;;;;;;4935469;28;19997;-65
2022/01/30 15:10:26;;;;;;;;;;;1.20;99.90;;;;;;4936350;28;19958;-65
2022/01/30 15:12:54;;;;;;;;;;;1.20;99.90;;;;;;4931818;28;19930;-68
2022/01/30 15:15:22;;;;;;;;;;;1.20;99.90;;;;;;4936793;28;20078;-69
2022/01/30 15:17:52;;;;;;;;;;;1.20;99.90;;;;;;4934193;28;19926;-65
2022/01/30 15:20:19;;;;;;;;;;;1.20;99.90;;;;;;4933985;28;20120;-64
2022/01/30 15:22:47;;;;;;;;;;;1.20;99.90;;;;;;4919949;28;19931;-65
2022/01/30 15:25:14;;;;;;;;;;;1.20;99.90;;;;;;4908859;28;19930;-66
2022/01/30 15:27:42;;;;;;;;;;;1.10;99.90;;;;;;4908276;28;19930;-69
2022/01/30 15:30:11;;;;;;;;;;;1.10;99.90;;;;;;4908982;28;19930;-67
2022/01/30 15:32:38;;;;;;;;;;;1.10;99.90;;;;;;4865490;28;19926;-71
2022/01/30 15:35:13;;;;;;;;;;;1.10;99.90;;;;;;3729215;28;10000999;-69
2022/01/30 15:37:40;;;;;;;;;;;1.00;99.90;;;;;;1690423;28;10002192;-69
2022/01/30 15:40:07;;;;;;;;;;;1.00;99.90;;;;;;4904810;28;20521;-67
2022/01/30 15:42:34;;;;;;;;;;;1.10;99.90;;;;;;4907747;28;20149;-71
2022/01/30 15:50:13;;;;;;;;;;;1.10;99.90;;;;;;4906336;28;20017;-71
2022/01/30 15:52:40;;;;;;;;;;;1.10;99.90;;;;;;4909626;28;20060;-67
2022/01/30 15:55:07;;;;;;;;;;;1.10;99.90;;;;;;4933150;28;20144;-67
2022/01/30 15:57:34;;;;;;;;;;;1.00;99.90;;;;;;4934070;28;21475;-66
2022/01/30 16:00:02;;;;;;;;;;;1.00;99.90;;;;;;4934906;28;19937;-67
2022/01/30 16:02:29;;;;;;;;;;;1.00;99.90;;;;;;4932308;28;19985;-66
2022/01/30 16:04:57;;;;;;;;;;;1.00;99.90;;;;;;4934224;28;20272;-66
2022/01/30 16:07:24;;;;;;;;;;;1.00;99.90;;;;;;4931873;28;19930;-68